Taiheimaru — JM6135 — position and weather

sailwx.info

Track history (hours):
 
Tides and Currents Weather Stations Pressure Air Temp Water Temp Dewpoint Dewpoint Depression Visibility Wind Speed Wind Dir Waves Ship Positions

Taiheimaru

Last reported at 2015-Aug-27 03:27 UTC. Time now 2015-Sep-02 19:04 UTC.
Position N 34°39' E 135°15'.

Length 78 m.

Type: Cargo ship. MMSI: 431400082.

Date/timePositionNaut miles runAvg speedWind from/ knotsBaromVisibWave heightAir tempDewpointWater temp
2015-Aug-27 03:27N 34°39' E 135°15'0 0.1
2015-Aug-27 02:32N 34°39' E 135°15'2 1.7
2015-Aug-27 01:33N 34°40' E 135°16'0 0.0
2015-Aug-27 00:33N 34°40' E 135°16'0 0.0
2015-Aug-26 23:17N 34°40' E 135°16'0 0.0
2015-Aug-26 22:29N 34°40' E 135°16'0 0.0
2015-Aug-26 21:17N 34°40' E 135°16'0 0.0
2015-Aug-26 20:23N 34°40' E 135°16'6 6.6
2015-Aug-26 19:28N 34°36' E 135°11'  
2015-Aug-24 07:26N 34°37' E 135°01'1111.9
2015-Aug-24 06:33N 34°38' E 135°14'2 1.6
2015-Aug-24 05:33N 34°39' E 135°15'2 2.2
2015-Aug-24 04:29N 34°41' E 135°17'0 0.0
2015-Aug-24 03:21N 34°41' E 135°17'0 0.0
2015-Aug-24 02:30N 34°41' E 135°17'2 2.5
2015-Aug-24 01:33N 34°39' E 135°15'1 0.7
2015-Aug-24 00:28N 34°40' E 135°14'2 2.0
2015-Aug-23 23:29N 34°41' E 135°13'0 0.0
2015-Aug-23 22:33N 34°41' E 135°13'0 0.0
2015-Aug-23 21:33N 34°41' E 135°13'0 0.0
2015-Aug-23 20:31N 34°41' E 135°13'0 0.0
2015-Aug-23 19:33N 34°41' E 135°13'0 0.0
2015-Aug-23 18:33N 34°41' E 135°13'0 0.0
2015-Aug-23 17:32N 34°41' E 135°13'0 0.0
2015-Aug-23 16:33N 34°41' E 135°13'0 0.0
2015-Aug-23 15:33N 34°41' E 135°13'0 0.0
2015-Aug-23 14:31N 34°41' E 135°13'0 0.0
2015-Aug-23 13:33N 34°41' E 135°13'0 0.0
2015-Aug-23 12:32N 34°41' E 135°13'0 0.0
2015-Aug-23 11:33N 34°41' E 135°13'0 0.0
2015-Aug-23 10:31N 34°41' E 135°13'0 0.0
2015-Aug-23 09:27N 34°41' E 135°13'0 0.0
2015-Aug-23 08:31N 34°41' E 135°13'0 0.0
2015-Aug-23 07:30N 34°41' E 135°13'0 0.0
2015-Aug-23 06:24N 34°41' E 135°13'0 0.0
2015-Aug-23 05:32N 34°41' E 135°13'0 0.0
2015-Aug-23 04:30N 34°41' E 135°13'0 0.0
2015-Aug-23 03:33N 34°41' E 135°13'0 0.0
2015-Aug-23 02:33N 34°41' E 135°13'0 0.0
2015-Aug-23 01:31N 34°41' E 135°13'0 0.0
2015-Aug-23 00:30N 34°41' E 135°13'0 0.0
2015-Aug-22 23:31N 34°41' E 135°13'0 0.0
2015-Aug-22 22:25N 34°41' E 135°13'0 0.0
2015-Aug-22 21:32N 34°41' E 135°13'0 0.0
2015-Aug-22 20:34N 34°41' E 135°13'0 0.0
2015-Aug-22 19:34N 34°41' E 135°13'0 0.0
2015-Aug-22 18:28N 34°41' E 135°13'0 0.0
2015-Aug-22 17:28N 34°41' E 135°13'0 0.0
2015-Aug-22 16:28N 34°41' E 135°13'0 0.0
2015-Aug-22 15:28N 34°41' E 135°13'2 2.2
2015-Aug-22 14:31N 34°40' E 135°15'1010.5
2015-Aug-22 13:31N 34°35' E 135°04'6 0.2
2015-Aug-21 09:33N 34°37' E 134°57'9 8.6
2015-Aug-21 08:30N 34°36' E 135°08'9 9.3
2015-Aug-21 07:32N 34°41' E 135°17'0 0.3
2015-Aug-21 06:33N 34°41' E 135°17'2 2.0
2015-Aug-21 05:29N 34°39' E 135°15'2 2.0
2015-Aug-21 04:33N 34°41' E 135°16'0 0.4
2015-Aug-21 03:33N 34°41' E 135°17'0 0.0
2015-Aug-21 02:33N 34°41' E 135°17'1 0.8
2015-Aug-21 01:30N 34°40' E 135°16'0 0.0
2015-Aug-21 00:30N 34°40' E 135°16'2 1.9
2015-Aug-20 23:32N 34°40' E 135°14'2 1.5
2015-Aug-20 22:33N 34°38' E 135°15'0 0.0
2015-Aug-20 21:29N 34°38' E 135°15'0 0.0
2015-Aug-20 20:29N 34°38' E 135°15'8 8.2
2015-Aug-20 19:32N 34°35' E 135°06'8 0.2
2015-Aug-19 09:04N 34°37' E 134°57'5 7.9
2015-Aug-19 08:25N 34°37' E 135°03'9 9.8
2015-Aug-19 07:32N 34°37' E 135°13'8 4.2
2015-Aug-19 05:33N 34°38' E 135°23'6 5.4
2015-Aug-19 04:24N 34°41' E 135°17'0 0.0
2015-Aug-19 03:33N 34°41' E 135°17'13 0.3
2015-Aug-17 07:07N 34°37' E 135°01'5 6.7
2015-Aug-17 06:24N 34°36' E 135°07'8 9.3
2015-Aug-17 05:33N 34°40' E 135°15'1 1.3
2015-Aug-17 04:32N 34°41' E 135°16'0 0.0
2015-Aug-17 03:28N 34°41' E 135°16'  
Track history (hours):
 
Tides and Currents Weather Stations Pressure Air Temp Water Temp Dewpoint Dewpoint Depression Visibility Wind Speed Wind Dir Waves Ship Positions

Taiheimaru

Last reported at 2015-Aug-27 03:27 UTC. Time now 2015-Sep-02 19:04 UTC.
Position N 34°39' E 135°15'.

Length 78 m.

Type: Cargo ship. MMSI: 431400082.

Date/timePositionNaut miles runAvg speedWind from/ knotsBaromVisibWave heightAir tempDewpointWater temp
2015-Aug-27 03:27N 34°39' E 135°15'0 0.1
2015-Aug-27 02:32N 34°39' E 135°15'2 1.7
2015-Aug-27 01:33N 34°40' E 135°16'0 0.0
2015-Aug-27 00:33N 34°40' E 135°16'0 0.0
2015-Aug-26 23:17N 34°40' E 135°16'0 0.0
2015-Aug-26 22:29N 34°40' E 135°16'0 0.0
2015-Aug-26 21:17N 34°40' E 135°16'0 0.0
2015-Aug-26 20:23N 34°40' E 135°16'6 6.6
2015-Aug-26 19:28N 34°36' E 135°11'  
2015-Aug-24 07:26N 34°37' E 135°01'1111.9
2015-Aug-24 06:33N 34°38' E 135°14'2 1.6
2015-Aug-24 05:33N 34°39' E 135°15'2 2.2
2015-Aug-24 04:29N 34°41' E 135°17'0 0.0
2015-Aug-24 03:21N 34°41' E 135°17'0 0.0
2015-Aug-24 02:30N 34°41' E 135°17'2 2.5
2015-Aug-24 01:33N 34°39' E 135°15'1 0.7
2015-Aug-24 00:28N 34°40' E 135°14'2 2.0
2015-Aug-23 23:29N 34°41' E 135°13'0 0.0
2015-Aug-23 22:33N 34°41' E 135°13'0 0.0
2015-Aug-23 21:33N 34°41' E 135°13'0 0.0
2015-Aug-23 20:31N 34°41' E 135°13'0 0.0
2015-Aug-23 19:33N 34°41' E 135°13'0 0.0
2015-Aug-23 18:33N 34°41' E 135°13'0 0.0
2015-Aug-23 17:32N 34°41' E 135°13'0 0.0
2015-Aug-23 16:33N 34°41' E 135°13'0 0.0
2015-Aug-23 15:33N 34°41' E 135°13'0 0.0
2015-Aug-23 14:31N 34°41' E 135°13'0 0.0
2015-Aug-23 13:33N 34°41' E 135°13'0 0.0
2015-Aug-23 12:32N 34°41' E 135°13'0 0.0
2015-Aug-23 11:33N 34°41' E 135°13'0 0.0
2015-Aug-23 10:31N 34°41' E 135°13'0 0.0
2015-Aug-23 09:27N 34°41' E 135°13'0 0.0
2015-Aug-23 08:31N 34°41' E 135°13'0 0.0
2015-Aug-23 07:30N 34°41' E 135°13'0 0.0
2015-Aug-23 06:24N 34°41' E 135°13'0 0.0
2015-Aug-23 05:32N 34°41' E 135°13'0 0.0
2015-Aug-23 04:30N 34°41' E 135°13'0 0.0
2015-Aug-23 03:33N 34°41' E 135°13'0 0.0
2015-Aug-23 02:33N 34°41' E 135°13'0 0.0
2015-Aug-23 01:31N 34°41' E 135°13'0 0.0
2015-Aug-23 00:30N 34°41' E 135°13'0 0.0
2015-Aug-22 23:31N 34°41' E 135°13'0 0.0
2015-Aug-22 22:25N 34°41' E 135°13'0 0.0
2015-Aug-22 21:32N 34°41' E 135°13'0 0.0
2015-Aug-22 20:34N 34°41' E 135°13'0 0.0
2015-Aug-22 19:34N 34°41' E 135°13'0 0.0
2015-Aug-22 18:28N 34°41' E 135°13'0 0.0
2015-Aug-22 17:28N 34°41' E 135°13'0 0.0
2015-Aug-22 16:28N 34°41' E 135°13'0 0.0
2015-Aug-22 15:28N 34°41' E 135°13'2 2.2
2015-Aug-22 14:31N 34°40' E 135°15'1010.5
2015-Aug-22 13:31N 34°35' E 135°04'6 0.2
2015-Aug-21 09:33N 34°37' E 134°57'9 8.6
2015-Aug-21 08:30N 34°36' E 135°08'9 9.3
2015-Aug-21 07:32N 34°41' E 135°17'0 0.3
2015-Aug-21 06:33N 34°41' E 135°17'2 2.0
2015-Aug-21 05:29N 34°39' E 135°15'2 2.0
2015-Aug-21 04:33N 34°41' E 135°16'0 0.4
2015-Aug-21 03:33N 34°41' E 135°17'0 0.0
2015-Aug-21 02:33N 34°41' E 135°17'1 0.8
2015-Aug-21 01:30N 34°40' E 135°16'0 0.0
2015-Aug-21 00:30N 34°40' E 135°16'2 1.9
2015-Aug-20 23:32N 34°40' E 135°14'2 1.5
2015-Aug-20 22:33N 34°38' E 135°15'0 0.0
2015-Aug-20 21:29N 34°38' E 135°15'0 0.0
2015-Aug-20 20:29N 34°38' E 135°15'8 8.2
2015-Aug-20 19:32N 34°35' E 135°06'8 0.2
2015-Aug-19 09:04N 34°37' E 134°57'5 7.9
2015-Aug-19 08:25N 34°37' E 135°03'9 9.8
2015-Aug-19 07:32N 34°37' E 135°13'8 4.2
2015-Aug-19 05:33N 34°38' E 135°23'6 5.4
2015-Aug-19 04:24N 34°41' E 135°17'0 0.0
2015-Aug-19 03:33N 34°41' E 135°17'13 0.3
2015-Aug-17 07:07N 34°37' E 135°01'5 6.7
2015-Aug-17 06:24N 34°36' E 135°07'8 9.3
2015-Aug-17 05:33N 34°40' E 135°15'1 1.3
2015-Aug-17 04:32N 34°41' E 135°16'0 0.0
2015-Aug-17 03:28N 34°41' E 135°16'  

Dump ship's entire track history